sim
Sign-in with your pilot id or email,
or register
Callsign
Passwort

Schedule Details

Flight Number: EWG1783 (4)
Departure: Palma de Mallorca Airport (LEPA) at 18:00
Arrival: Munich Airport (EDDM) at 20:10
Route: Eurowings Passenger Schedule. Enter filed route here before submitting Pirep.

Weather Information
Getting current METAR information for LEPA 220000Z VRB01KT 9999 FEW020 20/18 Q1015 NOSIG
Getting current METAR information for EDDM 220020Z VRB01KT 7000 3000NE R08L/0450N BCFG NSC 10/09 Q1015 NOSIG

Schedule Frequency

Route Map